createdAt,value
2022-08-03T00:01:53.239Z,96614.28
2022-08-03T00:04:20.183Z,96617.00
2022-08-03T00:06:47.041Z,96607.97
2022-08-03T00:09:13.880Z,96618.63
2022-08-03T00:11:40.710Z,96609.94
2022-08-03T00:14:08.377Z,96614.63
2022-08-03T00:16:35.333Z,96613.50
2022-08-03T00:19:03.276Z,96605.00
2022-08-03T00:21:30.186Z,96611.41
2022-08-03T00:23:57.045Z,96603.47
2022-08-03T00:26:23.929Z,96601.06
2022-08-03T00:28:51.433Z,96601.81
2022-08-03T00:31:27.742Z,96600.75
2022-08-03T00:34:06.135Z,96605.84
2022-08-03T00:36:33.795Z,96601.88
2022-08-03T00:39:00.622Z,96608.53
2022-08-03T00:41:27.597Z,96611.41
2022-08-03T00:43:54.433Z,96606.81
2022-08-03T00:46:22.454Z,96603.81
2022-08-03T00:48:53.319Z,96609.16
2022-08-03T00:51:23.311Z,96607.53
2022-08-03T00:53:50.996Z,96612.22
2022-08-03T00:56:18.401Z,96602.84
2022-08-03T00:58:46.848Z,96612.38
2022-08-03T01:01:14.317Z,96610.28
2022-08-03T01:03:41.586Z,96614.44
2022-08-03T01:06:38.777Z,96607.94
2022-08-03T01:10:01.236Z,96611.25
2022-08-03T01:14:01.202Z,96601.72
2022-08-03T01:16:52.819Z,96602.81
2022-08-03T01:19:45.849Z,96599.22
2022-08-03T01:22:50.063Z,96606.97
2022-08-03T01:25:54.577Z,96601.66
2022-08-03T01:28:54.632Z,96598.91
2022-08-03T01:31:28.574Z,96593.00
2022-08-03T01:34:03.224Z,96587.22
2022-08-03T01:36:37.421Z,96586.19
2022-08-03T01:39:11.367Z,96586.72
2022-08-03T01:41:49.559Z,96592.78
2022-08-03T01:44:29.459Z,96585.94
2022-08-03T01:47:00.810Z,96586.59
2022-08-03T01:49:30.390Z,96595.13
2022-08-03T01:52:04.542Z,96588.34
2022-08-03T01:54:42.214Z,96598.31
2022-08-03T01:57:11.050Z,96597.28
2022-08-03T01:59:40.393Z,96601.06
2022-08-03T02:02:27.683Z,96604.75
2022-08-03T02:04:57.656Z,96594.53
2022-08-03T02:07:27.081Z,96600.56
2022-08-03T02:09:55.697Z,96597.91
2022-08-03T02:12:25.703Z,96600.47
2022-08-03T02:14:54.154Z,96604.63
2022-08-03T02:17:38.974Z,96596.78
2022-08-03T02:20:11.833Z,96602.09
2022-08-03T02:22:43.218Z,96606.81
2022-08-03T02:25:13.465Z,96602.53
2022-08-03T02:27:48.538Z,96596.78
2022-08-03T02:30:15.951Z,96594.56
2022-08-03T02:32:52.109Z,96594.56
2022-08-03T02:35:23.318Z,96597.56
2022-08-03T02:38:03.357Z,96604.25
2022-08-03T02:40:32.289Z,96600.09
2022-08-03T02:43:12.109Z,96593.97
2022-08-03T02:45:45.642Z,96595.16
2022-08-03T02:48:17.776Z,96593.97
2022-08-03T02:50:45.946Z,96595.16
2022-08-03T02:53:14.105Z,96590.88
2022-08-03T02:55:43.287Z,96589.84
2022-08-03T02:58:14.349Z,96599.88
2022-08-03T03:00:44.437Z,96591.91
2022-08-03T03:03:11.780Z,96592.16
2022-08-03T03:05:54.774Z,96591.34
2022-08-03T03:08:28.222Z,96591.25
2022-08-03T03:11:01.018Z,96589.84
2022-08-03T03:13:30.500Z,96592.78
2022-08-03T03:16:04.133Z,96590.34
2022-08-03T03:18:35.375Z,96589.63
2022-08-03T03:21:04.157Z,96592.06
2022-08-03T03:23:36.026Z,96585.97
2022-08-03T03:26:04.095Z,96594.97
2022-08-03T03:28:32.508Z,96591.72
2022-08-03T03:31:00.740Z,96594.25
2022-08-03T03:33:28.630Z,96595.63
2022-08-03T03:35:56.166Z,96593.56
2022-08-03T03:38:22.994Z,96600.94
2022-08-03T03:40:50.152Z,96597.59
2022-08-03T03:43:18.568Z,96605.81
2022-08-03T03:45:47.601Z,96602.56
2022-08-03T03:48:15.329Z,96608.34
2022-08-03T03:50:43.925Z,96612.25
2022-08-03T03:53:12.943Z,96608.47
2022-08-03T03:55:59.333Z,96609.03
2022-08-03T03:58:27.783Z,96610.91
2022-08-03T04:00:54.653Z,96606.97
2022-08-03T04:03:21.706Z,96607.66
2022-08-03T04:06:07.307Z,96610.19
2022-08-03T04:08:52.655Z,96608.56
2022-08-03T04:11:52.087Z,96617.13
2022-08-03T04:14:30.511Z,96611.56
2022-08-03T04:17:03.563Z,96611.81
2022-08-03T04:19:43.768Z,96618.97
2022-08-03T04:22:12.662Z,96616.44
2022-08-03T04:24:50.018Z,96619.59
2022-08-03T04:27:31.739Z,96630.91
2022-08-03T04:30:02.860Z,96627.53
2022-08-03T04:32:31.281Z,96620.81
2022-08-03T04:34:58.386Z,96628.78
2022-08-03T04:37:39.822Z,96623.94
2022-08-03T04:40:11.413Z,96627.19
2022-08-03T04:42:39.516Z,96632.28
2022-08-03T04:45:08.213Z,96618.03
2022-08-03T04:47:35.881Z,96627.25
2022-08-03T04:50:11.909Z,96633.13
2022-08-03T04:52:40.024Z,96633.66
2022-08-03T04:55:07.453Z,96624.28
2022-08-03T04:57:34.269Z,96628.53
2022-08-03T05:00:03.630Z,96632.47
2022-08-03T05:02:31.392Z,96625.56
2022-08-03T05:04:59.981Z,96632.84
2022-08-03T05:07:35.584Z,96639.13
2022-08-03T05:10:05.960Z,96629.31
2022-08-03T05:12:42.567Z,96641.75
2022-08-03T05:15:10.295Z,96649.34
2022-08-03T05:17:37.108Z,96648.38
2022-08-03T05:20:05.481Z,96639.50
2022-08-03T05:22:32.500Z,96639.53
2022-08-03T05:25:01.136Z,96637.91
2022-08-03T05:27:27.984Z,96645.00
2022-08-03T05:29:54.853Z,96646.59
2022-08-03T05:32:22.198Z,96653.50
2022-08-03T05:34:49.228Z,96643.59
2022-08-03T05:37:16.098Z,96649.41
2022-08-03T05:39:43.377Z,96653.06
2022-08-03T05:42:10.641Z,96655.41
2022-08-03T05:44:38.759Z,96649.16
2022-08-03T05:47:06.177Z,96645.78
2022-08-03T05:49:33.149Z,96649.69
2022-08-03T05:52:12.646Z,96656.53
2022-08-03T05:54:57.432Z,96656.38
2022-08-03T05:57:25.794Z,96648.50
2022-08-03T05:59:54.772Z,96646.72
2022-08-03T06:02:26.509Z,96646.28
2022-08-03T06:04:53.607Z,96652.56
2022-08-03T06:07:20.424Z,96645.19
2022-08-03T06:10:34.435Z,96652.81
2022-08-03T06:12:36.787Z,96648.81
2022-08-03T06:15:07.841Z,96641.41
2022-08-03T06:17:48.961Z,96645.22
2022-08-03T06:20:20.559Z,96651.09
2022-08-03T06:22:51.403Z,96643.03
2022-08-03T06:25:27.553Z,96642.91
2022-08-03T06:27:54.408Z,96648.44
2022-08-03T06:30:21.612Z,96651.84
2022-08-03T06:32:52.152Z,96645.50
2022-08-03T06:35:20.122Z,96649.88
2022-08-03T06:37:49.630Z,96652.13
2022-08-03T06:40:29.634Z,96650.09
2022-08-03T06:42:57.964Z,96660.94
2022-08-03T06:45:25.345Z,96650.78
2022-08-03T06:48:07.062Z,96655.25
2022-08-03T06:50:36.709Z,96653.63
2022-08-03T06:53:05.325Z,96651.81
2022-08-03T06:55:33.118Z,96649.28
2022-08-03T06:58:03.190Z,96648.63
2022-08-03T07:00:30.966Z,96644.94
2022-08-03T07:02:58.588Z,96648.72
2022-08-03T07:05:26.176Z,96643.38
2022-08-03T07:07:57.619Z,96649.75
2022-08-03T07:10:24.898Z,96648.53
2022-08-03T07:12:56.006Z,96644.91
2022-08-03T07:15:54.916Z,96654.69
2022-08-03T07:18:11.840Z,96654.50
2022-08-03T07:20:38.733Z,96649.72
2022-08-03T07:23:05.605Z,96651.72
2022-08-03T07:25:32.533Z,96651.03
2022-08-03T07:27:59.663Z,96641.75
2022-08-03T07:30:26.542Z,96644.72
2022-08-03T07:32:53.441Z,96640.28
2022-08-03T07:35:25.069Z,96640.25
2022-08-03T07:37:54.750Z,96640.03
2022-08-03T07:40:22.852Z,96638.00
2022-08-03T07:42:52.275Z,96637.59
2022-08-03T07:45:23.311Z,96632.81
2022-08-03T07:47:53.558Z,96634.13
2022-08-03T07:50:21.809Z,96637.69
2022-08-03T07:52:49.780Z,96640.41
2022-08-03T07:55:21.204Z,96640.09
2022-08-03T07:58:00.275Z,96629.09
2022-08-03T08:00:27.251Z,96631.53
2022-08-03T08:02:54.227Z,96628.19
2022-08-03T08:05:21.354Z,96625.31
2022-08-03T08:07:50.994Z,96622.50
2022-08-03T08:10:18.779Z,96627.09
2022-08-03T08:12:45.788Z,96620.75
2022-08-03T08:15:12.837Z,96629.31
2022-08-03T08:17:50.045Z,96624.28
2022-08-03T08:20:30.777Z,96623.72
2022-08-03T08:23:19.963Z,96626.06
2022-08-03T08:25:52.908Z,96623.72
2022-08-03T08:28:32.151Z,96626.06
2022-08-03T08:31:00.706Z,96617.41
2022-08-03T08:33:37.350Z,96624.63
2022-08-03T08:36:14.815Z,96629.31
2022-08-03T08:38:44.370Z,96615.28
2022-08-03T08:41:13.422Z,96618.03
2022-08-03T08:43:41.805Z,96618.66
2022-08-03T08:46:12.998Z,96619.19
2022-08-03T08:48:51.595Z,96606.16
2022-08-03T08:51:21.350Z,96612.72
2022-08-03T08:53:53.648Z,96612.09
2022-08-03T08:56:25.334Z,96611.28
2022-08-03T08:58:57.965Z,96602.16
2022-08-03T09:01:25.402Z,96601.16
2022-08-03T09:03:54.167Z,96605.53
2022-08-03T09:06:22.762Z,96604.56
2022-08-03T09:08:49.997Z,96606.47
2022-08-03T09:11:21.408Z,96602.03
2022-08-03T09:14:10.284Z,96606.97
2022-08-03T09:17:02.504Z,96597.53
2022-08-03T09:19:31.463Z,96601.94
2022-08-03T09:22:16.630Z,96599.94
2022-08-03T09:25:23.878Z,96607.06
2022-08-03T09:27:51.644Z,96603.56
2022-08-03T09:30:33.767Z,96595.00
2022-08-03T09:33:08.543Z,96603.28
2022-08-03T09:35:57.391Z,96598.81
2022-08-03T09:38:28.124Z,96596.75
2022-08-03T09:40:59.936Z,96595.94
2022-08-03T09:43:28.588Z,96601.94
2022-08-03T09:46:07.266Z,96601.22
2022-08-03T09:48:37.354Z,96600.38
2022-08-03T09:51:14.268Z,96598.25
2022-08-03T09:53:58.819Z,96599.81
2022-08-03T09:56:45.998Z,96589.47
2022-08-03T09:59:23.741Z,96591.63
2022-08-03T10:01:50.681Z,96589.13
2022-08-03T10:04:17.690Z,96589.78
2022-08-03T10:07:12.551Z,96599.88
2022-08-03T10:09:57.074Z,96593.34
2022-08-03T10:12:25.329Z,96581.84
2022-08-03T10:14:53.308Z,96588.53
2022-08-03T10:17:22.222Z,96586.75
2022-08-03T10:19:50.474Z,96584.22
2022-08-03T10:22:22.883Z,96585.00
2022-08-03T10:25:09.721Z,96585.91
2022-08-03T10:27:43.017Z,96572.34
2022-08-03T10:30:11.982Z,96575.75
2022-08-03T10:32:46.213Z,96570.16
2022-08-03T10:35:21.654Z,96574.13
2022-08-03T10:38:00.632Z,96575.31
2022-08-03T10:43:23.086Z,96568.41
2022-08-03T10:45:51.886Z,96565.13
2022-08-03T10:48:19.846Z,96562.72
2022-08-03T10:50:49.139Z,96566.03
2022-08-03T10:53:18.607Z,96568.72
2022-08-03T10:56:05.871Z,96558.81
2022-08-03T10:58:53.311Z,96551.28
2022-08-03T11:01:59.025Z,96545.16
2022-08-03T11:04:29.518Z,96546.69
2022-08-03T11:07:24.833Z,96550.38
2022-08-03T11:09:55.321Z,96542.88
2022-08-03T11:12:32.252Z,96536.84
2022-08-03T11:15:07.150Z,96546.22
2022-08-03T11:17:46.518Z,96541.47
2022-08-03T11:20:51.041Z,96537.84
2022-08-03T11:24:05.253Z,96537.25
2022-08-03T11:26:29.214Z,96539.06
2022-08-03T11:29:31.708Z,96539.06
2022-08-03T11:31:58.872Z,96536.03
2022-08-03T11:34:26.548Z,96544.44
2022-08-03T11:37:26.361Z,96534.06
2022-08-03T11:39:57.191Z,96527.63
2022-08-03T11:42:24.261Z,96522.91
2022-08-03T11:44:53.248Z,96530.28
2022-08-03T11:47:26.828Z,96530.53
2022-08-03T11:50:00.584Z,96527.53
2022-08-03T11:52:34.753Z,96523.41
2022-08-03T11:55:02.330Z,96526.47
2022-08-03T11:59:17.833Z,96517.66
2022-08-03T12:00:33.205Z,96514.06
2022-08-03T12:03:08.018Z,96519.88
2022-08-03T12:05:51.129Z,96519.91
2022-08-03T12:08:28.017Z,96510.81
2022-08-03T12:10:57.558Z,96510.19
2022-08-03T12:14:44.169Z,96507.66
2022-08-03T12:16:21.516Z,96506.84
2022-08-03T12:19:02.847Z,96503.69
2022-08-03T12:21:31.131Z,96506.69
2022-08-03T12:24:03.942Z,96501.28
2022-08-03T12:26:59.032Z,96498.41
2022-08-03T12:29:27.380Z,96484.28
2022-08-03T12:31:56.079Z,96491.34
2022-08-03T12:34:23.226Z,96490.63
2022-08-03T12:36:53.217Z,96493.03
2022-08-03T12:39:25.585Z,96493.38
2022-08-03T12:41:57.391Z,96495.09
2022-08-03T12:44:35.927Z,96499.44
2022-08-03T12:47:06.821Z,96492.31
2022-08-03T12:49:51.738Z,96497.38
2022-08-03T12:52:22.193Z,96485.50
2022-08-03T12:55:00.663Z,96478.78
2022-08-03T12:57:41.924Z,96478.44
2022-08-03T13:00:21.291Z,96468.47
2022-08-03T13:05:54.485Z,96481.31
2022-08-03T13:08:25.074Z,96482.94
2022-08-03T13:10:52.155Z,96481.88
2022-08-03T13:13:20.753Z,96477.34
2022-08-03T13:15:48.351Z,96481.31
2022-08-03T13:18:17.353Z,96473.88
2022-08-03T13:20:44.637Z,96475.88
2022-08-03T13:23:21.907Z,96477.16
2022-08-03T13:25:55.132Z,96474.00
2022-08-03T13:28:23.176Z,96473.56
2022-08-03T13:30:50.182Z,96470.75
2022-08-03T13:33:17.510Z,96476.06
2022-08-03T13:35:44.415Z,96469.44
2022-08-03T13:38:11.370Z,96465.34
2022-08-03T13:40:41.730Z,96461.22
2022-08-03T13:43:09.025Z,96466.41
2022-08-03T13:45:36.183Z,96453.44
2022-08-03T13:48:03.067Z,96458.81
2022-08-03T13:50:31.296Z,96451.16
2022-08-03T13:52:58.650Z,96449.34
2022-08-03T13:55:25.570Z,96446.31
2022-08-03T13:58:03.078Z,96439.81
2022-08-03T14:00:34.061Z,96448.97
2022-08-03T14:03:09.088Z,96440.44
2022-08-03T14:05:40.215Z,96437.88
2022-08-03T14:08:07.842Z,96430.84
2022-08-03T14:10:41.120Z,96435.47
2022-08-03T14:13:08.809Z,96430.06
2022-08-03T14:15:38.249Z,96427.25
2022-08-03T14:18:13.020Z,96427.25
2022-08-03T14:20:47.757Z,96427.63
2022-08-03T14:23:17.658Z,96428.09
2022-08-03T14:25:51.722Z,96414.28
2022-08-03T14:28:22.934Z,96421.81
2022-08-03T14:30:51.710Z,96414.06
2022-08-03T14:33:18.654Z,96415.91
2022-08-03T14:35:45.494Z,96412.28
2022-08-03T14:38:12.350Z,96411.16
2022-08-03T14:40:39.468Z,96421.38
2022-08-03T14:43:06.413Z,96422.97
2022-08-03T14:45:34.291Z,96416.09
2022-08-03T14:50:10.491Z,96409.69
2022-08-03T14:50:51.739Z,96407.84
2022-08-03T14:53:19.711Z,96406.91
2022-08-03T14:55:49.941Z,96405.06
2022-08-03T14:58:21.426Z,96408.91
2022-08-03T15:00:51.228Z,96399.75
2022-08-03T15:03:25.396Z,96395.09
2022-08-03T15:05:54.745Z,96403.41
2022-08-03T15:08:23.518Z,96394.41
2022-08-03T15:10:51.559Z,96391.94
2022-08-03T15:13:19.903Z,96392.72
2022-08-03T15:15:47.858Z,96384.91
2022-08-03T15:18:14.761Z,96386.50
2022-08-03T15:20:46.351Z,96387.94
2022-08-03T15:23:15.575Z,96384.09
2022-08-03T15:26:04.211Z,96379.03
2022-08-03T15:28:31.903Z,96374.88
2022-08-03T15:30:58.870Z,96382.72
2022-08-03T15:33:25.696Z,96379.97
2022-08-03T15:35:53.318Z,96374.06
2022-08-03T15:38:25.734Z,96375.94
2022-08-03T15:40:56.033Z,96379.91
2022-08-03T15:43:23.890Z,96379.22
2022-08-03T15:46:27.761Z,96374.81
2022-08-03T15:48:45.632Z,96373.50
2022-08-03T15:51:12.547Z,96376.75
2022-08-03T15:53:39.445Z,96365.97
2022-08-03T15:56:12.106Z,96373.00
2022-08-03T15:59:09.397Z,96368.00
2022-08-03T16:01:28.137Z,96373.19
2022-08-03T16:03:55.011Z,96374.13
2022-08-03T16:06:35.032Z,96374.88
2022-08-03T16:09:23.385Z,96370.97
2022-08-03T16:11:53.585Z,96373.88
2022-08-03T16:14:32.671Z,96367.91
2022-08-03T16:17:05.214Z,96369.94
2022-08-03T16:19:32.153Z,96368.06
2022-08-03T16:21:59.170Z,96366.41
2022-08-03T16:24:28.035Z,96365.25
2022-08-03T16:26:56.020Z,96361.97
2022-08-03T16:29:23.807Z,96365.03
2022-08-03T16:31:51.850Z,96362.97
2022-08-03T16:34:19.307Z,96363.31
2022-08-03T16:36:46.117Z,96364.63
2022-08-03T16:39:13.023Z,96360.03
2022-08-03T16:41:54.393Z,96360.16
2022-08-03T16:44:28.636Z,96362.66
2022-08-03T16:46:55.467Z,96358.34
2022-08-03T16:49:54.593Z,96364.50
2022-08-03T16:52:09.202Z,96363.03
2022-08-03T16:54:39.814Z,96358.38
2022-08-03T16:57:07.529Z,96352.22
2022-08-03T16:59:36.731Z,96356.75
2022-08-03T17:02:12.706Z,96357.22
2022-08-03T17:04:40.250Z,96356.28
2022-08-03T17:07:08.919Z,96357.22
2022-08-03T17:09:39.051Z,96361.28
2022-08-03T17:12:07.536Z,96358.75
2022-08-03T17:14:39.755Z,96358.31
2022-08-03T17:17:17.862Z,96357.66
2022-08-03T17:19:47.478Z,96362.25
2022-08-03T17:22:28.646Z,96350.94
2022-08-03T17:24:58.750Z,96354.72
2022-08-03T17:28:49.456Z,96372.56
2022-08-03T17:30:17.527Z,96370.19
2022-08-03T17:32:57.063Z,96370.97
2022-08-03T17:35:34.333Z,96374.31
2022-08-03T17:38:07.734Z,96371.97
2022-08-03T17:40:38.035Z,96378.84
2022-08-03T17:44:14.509Z,96375.41
2022-08-03T17:45:55.039Z,96376.09
2022-08-03T17:48:24.954Z,96373.59
2022-08-03T17:51:07.781Z,96365.81
2022-08-03T17:53:53.935Z,96376.75
2022-08-03T17:56:45.668Z,96387.59
2022-08-03T17:59:51.521Z,96382.25
2022-08-03T18:02:57.133Z,96383.84
2022-08-03T18:06:10.356Z,96387.19
2022-08-03T18:08:24.797Z,96391.03
2022-08-03T18:11:03.338Z,96384.34
2022-08-03T18:13:57.799Z,96396.41
2022-08-03T18:16:34.017Z,96398.16
2022-08-03T18:19:09.227Z,96397.53
2022-08-03T18:22:03.231Z,96393.34
2022-08-03T18:24:29.095Z,96397.25
2022-08-03T18:26:59.247Z,96408.34
2022-08-03T18:29:27.629Z,96398.91
2022-08-03T18:32:03.745Z,96403.63
2022-08-03T18:34:34.480Z,96410.75
2022-08-03T18:37:07.234Z,96409.06
2022-08-03T18:39:49.495Z,96410.97
2022-08-03T18:42:19.423Z,96403.28
2022-08-03T18:44:52.945Z,96405.75
2022-08-03T18:47:50.800Z,96410.41
2022-08-03T18:50:50.172Z,96399.59
2022-08-03T18:54:02.992Z,96406.34
2022-08-03T18:56:29.840Z,96412.50
2022-08-03T18:59:11.479Z,96417.50
2022-08-03T19:02:00.852Z,96417.88
2022-08-03T19:05:03.731Z,96416.81
2022-08-03T19:07:36.091Z,96429.91
2022-08-03T19:10:10.159Z,96408.66
2022-08-03T19:12:54.363Z,96431.59
2022-08-03T19:15:36.953Z,96437.94
2022-08-03T19:18:11.807Z,96438.66
2022-08-03T19:20:46.715Z,96436.47
2022-08-03T19:23:14.338Z,96432.97
2022-08-03T19:25:41.435Z,96436.47
2022-08-03T19:28:09.371Z,96442.75
2022-08-03T19:30:53.290Z,96439.63
2022-08-03T19:33:21.530Z,96436.81
2022-08-03T19:35:54.891Z,96447.88
2022-08-03T19:38:28.608Z,96444.09
2022-08-03T19:41:03.170Z,96446.63
2022-08-03T19:43:52.850Z,96442.44
2022-08-03T19:46:30.913Z,96447.59
2022-08-03T19:49:15.243Z,96443.00
2022-08-03T19:52:00.634Z,96445.56
2022-08-03T19:54:39.656Z,96449.03
2022-08-03T19:57:24.787Z,96447.47
2022-08-03T19:59:55.062Z,96444.69
2022-08-03T20:02:27.268Z,96439.38
2022-08-03T20:04:57.032Z,96435.50
2022-08-03T20:07:25.970Z,96444.44
2022-08-03T20:09:56.584Z,96441.91
2022-08-03T20:12:27.653Z,96446.50
2022-08-03T20:14:57.812Z,96435.91
2022-08-03T20:17:54.127Z,96440.91
2022-08-03T20:20:13.010Z,96447.09
2022-08-03T20:22:45.551Z,96439.16
2022-08-03T20:25:20.642Z,96445.19
2022-08-03T20:28:07.272Z,96446.91
2022-08-03T20:30:39.458Z,96444.69
2022-08-03T20:33:09.483Z,96443.41
2022-08-03T20:35:36.378Z,96451.91
2022-08-03T20:38:03.712Z,96446.09
2022-08-03T20:40:30.544Z,96446.09
2022-08-03T20:42:57.690Z,96442.56
2022-08-03T20:45:58.553Z,96443.56
2022-08-03T20:48:11.486Z,96449.84
2022-08-03T20:50:44.045Z,96453.03
2022-08-03T20:53:12.503Z,96447.41
2022-08-03T20:55:47.499Z,96448.78
2022-08-03T20:58:27.210Z,96449.59
2022-08-03T21:00:56.731Z,96443.75
2022-08-03T21:03:23.674Z,96448.88
2022-08-03T21:05:53.542Z,96443.59
2022-08-03T21:08:46.867Z,96440.69
2022-08-03T21:11:18.828Z,96442.22
2022-08-03T21:14:09.164Z,96439.09
2022-08-03T21:16:40.635Z,96444.53
2022-08-03T21:19:07.972Z,96441.59
2022-08-03T21:21:39.055Z,96443.25
2022-08-03T21:24:08.196Z,96443.56
2022-08-03T21:26:38.939Z,96442.53
2022-08-03T21:29:06.246Z,96446.03
2022-08-03T21:31:33.117Z,96447.38
2022-08-03T21:34:05.321Z,96437.69
2022-08-03T21:36:35.279Z,96435.28
2022-08-03T21:39:06.925Z,96435.84
2022-08-03T21:41:34.475Z,96437.28
2022-08-03T21:44:03.215Z,96432.00
2022-08-03T21:46:37.990Z,96432.53
2022-08-03T21:50:06.082Z,96431.47
2022-08-03T21:51:59.493Z,96430.31
2022-08-03T21:54:39.612Z,96437.22
2022-08-03T21:57:24.186Z,96441.47
2022-08-03T21:59:57.254Z,96430.94
2022-08-03T22:02:31.407Z,96433.38
2022-08-03T22:04:59.335Z,96438.28
2022-08-03T22:07:28.807Z,96435.53
2022-08-03T22:09:57.382Z,96436.91
2022-08-03T22:12:28.651Z,96438.31
2022-08-03T22:15:00.501Z,96432.00
2022-08-03T22:17:54.825Z,96433.91
2022-08-03T22:20:21.925Z,96434.59
2022-08-03T22:22:56.095Z,96439.19
2022-08-03T22:25:29.037Z,96431.44
2022-08-03T22:27:58.463Z,96438.13
2022-08-03T22:30:25.888Z,96442.94
2022-08-03T22:32:56.072Z,96434.38
2022-08-03T22:35:26.027Z,96433.81
2022-08-03T22:37:58.761Z,96439.75
2022-08-03T22:40:27.652Z,96431.22
2022-08-03T22:42:54.967Z,96431.75
2022-08-03T22:46:07.386Z,96431.19
2022-08-03T22:48:08.743Z,96432.84
2022-08-03T22:50:35.860Z,96430.69
2022-08-03T22:53:02.862Z,96437.94
2022-08-03T22:55:31.254Z,96428.59
2022-08-03T22:57:58.396Z,96438.81
2022-08-03T23:00:25.421Z,96430.75
2022-08-03T23:02:54.638Z,96439.88
2022-08-03T23:06:00.693Z,96438.25
2022-08-03T23:08:15.310Z,96433.94
2022-08-03T23:10:47.207Z,96444.66
2022-08-03T23:13:19.856Z,96441.72
2022-08-03T23:15:56.187Z,96437.66
2022-08-03T23:18:25.474Z,96439.81
2022-08-03T23:20:53.688Z,96446.78
2022-08-03T23:23:23.313Z,96459.94
2022-08-03T23:25:51.770Z,96447.34
2022-08-03T23:28:18.951Z,96447.06
2022-08-03T23:30:47.422Z,96439.22
2022-08-03T23:33:16.729Z,96437.66
2022-08-03T23:36:27.885Z,96434.75
2022-08-03T23:38:44.871Z,96441.44
2022-08-03T23:41:13.605Z,96439.81
2022-08-03T23:43:51.462Z,96434.97
2022-08-03T23:46:21.985Z,96436.59
2022-08-03T23:48:49.977Z,96435.50
2022-08-03T23:52:02.836Z,96429.09
2022-08-03T23:54:53.568Z,96435.53
2022-08-03T23:57:32.783Z,96432.31
